createdAt,value
2022-09-10T00:01:20.610Z,100735.22
2022-09-10T00:03:49.062Z,100735.22
2022-09-10T00:06:17.888Z,100737.47
2022-09-10T00:08:46.012Z,100735.88
2022-09-10T00:11:14.897Z,100736.22
2022-09-10T00:13:43.084Z,100739.41
2022-09-10T00:16:13.527Z,100733.97
2022-09-10T00:18:41.060Z,100732.88
2022-09-10T00:21:10.405Z,100726.72
2022-09-10T00:23:37.475Z,100720.50
2022-09-10T00:26:22.568Z,100713.59
2022-09-10T00:28:50.612Z,100718.19
2022-09-10T00:31:18.280Z,100717.81
2022-09-10T00:33:45.103Z,100718.94
2022-09-10T00:36:15.448Z,100709.56
2022-09-10T00:38:41.854Z,100717.56
2022-09-10T00:41:08.663Z,100719.69
2022-09-10T00:43:55.179Z,100715.38
2022-09-10T00:46:43.334Z,100726.16
2022-09-10T00:49:28.829Z,100715.72
2022-09-10T00:51:55.273Z,100718.03
2022-09-10T00:54:25.059Z,100714.81
2022-09-10T00:56:54.954Z,100709.63
2022-09-10T00:59:26.167Z,100724.75
2022-09-10T01:01:53.013Z,100721.69
2022-09-10T01:04:20.038Z,100725.16
2022-09-10T01:06:47.119Z,100724.19
2022-09-10T01:09:14.385Z,100726.88
2022-09-10T01:12:08.862Z,100726.00
2022-09-10T01:14:54.708Z,100727.22
2022-09-10T01:17:37.335Z,100725.88
2022-09-10T01:20:41.006Z,100713.97
2022-09-10T01:23:26.838Z,100717.91
2022-09-10T01:26:11.763Z,100727.41
2022-09-10T01:29:23.379Z,100722.59
2022-09-10T01:31:55.521Z,100723.44
2022-09-10T01:34:29.794Z,100728.88
2022-09-10T01:37:03.791Z,100727.22
2022-09-10T01:39:30.601Z,100734.44
2022-09-10T01:41:59.013Z,100733.63
2022-09-10T01:44:49.602Z,100728.81
2022-09-10T01:47:45.896Z,100726.16
2022-09-10T01:50:48.236Z,100732.47
2022-09-10T01:53:44.770Z,100726.50
2022-09-10T01:56:35.621Z,100727.66
2022-09-10T01:59:34.453Z,100732.78
2022-09-10T02:02:10.011Z,100727.06
2022-09-10T02:04:37.631Z,100728.75
2022-09-10T02:07:06.887Z,100727.31
2022-09-10T02:09:33.568Z,100719.88
2022-09-10T02:12:00.039Z,100728.16
2022-09-10T02:14:49.767Z,100730.88
2022-09-10T02:17:26.678Z,100734.19
2022-09-10T02:19:54.377Z,100734.53
2022-09-10T02:22:23.803Z,100732.22
2022-09-10T02:24:51.551Z,100735.47
2022-09-10T02:27:18.119Z,100736.53
2022-09-10T02:29:44.658Z,100739.63
2022-09-10T02:32:11.206Z,100742.97
2022-09-10T02:34:37.684Z,100751.09
2022-09-10T02:37:04.186Z,100747.97
2022-09-10T02:39:30.965Z,100744.84
2022-09-10T02:41:58.639Z,100743.50
2022-09-10T02:44:28.190Z,100741.31
2022-09-10T02:46:55.328Z,100743.63
2022-09-10T02:49:21.832Z,100750.28
2022-09-10T02:51:50.457Z,100753.13
2022-09-10T02:54:19.931Z,100749.88
2022-09-10T02:56:49.772Z,100751.97
2022-09-10T02:59:17.889Z,100743.84
2022-09-10T03:01:44.424Z,100741.25
2022-09-10T03:04:11.004Z,100752.84
2022-09-10T03:06:38.216Z,100746.69
2022-09-10T03:09:04.691Z,100753.47
2022-09-10T03:11:31.591Z,100753.47
2022-09-10T03:13:58.508Z,100754.50
2022-09-10T03:16:25.532Z,100746.16
2022-09-10T03:18:52.290Z,100745.03
2022-09-10T03:21:22.089Z,100746.34
2022-09-10T03:23:50.488Z,100738.03
2022-09-10T03:26:25.194Z,100743.22
2022-09-10T03:28:52.507Z,100744.41
2022-09-10T03:31:21.667Z,100739.06
2022-09-10T03:33:51.031Z,100741.44
2022-09-10T03:36:18.218Z,100739.69
2022-09-10T03:38:45.771Z,100744.59
2022-09-10T03:41:12.488Z,100744.88
2022-09-10T03:43:39.116Z,100740.94
2022-09-10T03:46:08.649Z,100740.41
2022-09-10T03:48:39.644Z,100740.50
2022-09-10T03:51:07.751Z,100736.56
2022-09-10T03:53:34.644Z,100743.03
2022-09-10T03:56:01.811Z,100736.13
2022-09-10T03:58:28.666Z,100734.59
2022-09-10T04:00:55.128Z,100734.69
2022-09-10T04:03:22.230Z,100736.56
2022-09-10T04:05:48.642Z,100733.63
2022-09-10T04:08:15.337Z,100729.25
2022-09-10T04:10:43.995Z,100730.50
2022-09-10T04:13:11.338Z,100728.22
2022-09-10T04:15:38.364Z,100725.78
2022-09-10T04:18:06.043Z,100732.47
2022-09-10T04:20:33.159Z,100732.59
2022-09-10T04:23:05.657Z,100731.97
2022-09-10T04:25:34.474Z,100729.06
2022-09-10T04:28:01.863Z,100733.44
2022-09-10T04:30:29.284Z,100734.06
2022-09-10T04:32:55.800Z,100729.44
2022-09-10T04:35:22.297Z,100739.06
2022-09-10T04:37:48.935Z,100740.94
2022-09-10T04:40:15.684Z,100744.78
2022-09-10T04:42:42.263Z,100739.72
2022-09-10T04:45:09.671Z,100745.03
2022-09-10T04:47:36.197Z,100747.09
2022-09-10T04:50:03.496Z,100750.50
2022-09-10T04:52:29.996Z,100755.91
2022-09-10T04:54:56.984Z,100753.28
2022-09-10T04:57:25.913Z,100755.75
2022-09-10T04:59:53.994Z,100757.19
2022-09-10T05:02:21.359Z,100757.72
2022-09-10T05:04:47.916Z,100760.72
2022-09-10T05:07:14.852Z,100763.41
2022-09-10T05:09:42.077Z,100757.69
2022-09-10T05:12:08.504Z,100759.72
2022-09-10T05:14:34.976Z,100756.31
2022-09-10T05:17:03.203Z,100748.91
2022-09-10T05:19:30.472Z,100761.78
2022-09-10T05:22:02.726Z,100763.16
2022-09-10T05:24:31.898Z,100760.97
2022-09-10T05:26:59.528Z,100762.03
2022-09-10T05:29:26.021Z,100749.41
2022-09-10T05:31:52.554Z,100748.22
2022-09-10T05:34:19.078Z,100752.56
2022-09-10T05:36:45.544Z,100751.53
2022-09-10T05:39:11.949Z,100756.69
2022-09-10T05:41:38.475Z,100756.50
2022-09-10T05:44:05.306Z,100751.25
2022-09-10T05:46:32.983Z,100744.66
2022-09-10T05:49:07.299Z,100752.66
2022-09-10T05:51:34.340Z,100745.78
2022-09-10T05:54:02.984Z,100752.53
2022-09-10T05:56:31.740Z,100756.81
2022-09-10T05:58:58.380Z,100760.88
2022-09-10T06:01:25.624Z,100758.28
2022-09-10T06:03:52.433Z,100764.31
2022-09-10T06:06:19.573Z,100760.53
2022-09-10T06:08:56.460Z,100773.16
2022-09-10T06:11:34.361Z,100775.59
2022-09-10T06:14:01.604Z,100776.16
2022-09-10T06:16:28.379Z,100774.38
2022-09-10T06:18:56.928Z,100775.22
2022-09-10T06:21:28.302Z,100779.53
2022-09-10T06:23:56.486Z,100784.19
2022-09-10T06:26:25.558Z,100785.03
2022-09-10T06:28:56.732Z,100784.44
2022-09-10T06:31:23.530Z,100780.78
2022-09-10T06:33:51.270Z,100781.63
2022-09-10T06:36:20.531Z,100778.28
2022-09-10T06:38:49.512Z,100782.59
2022-09-10T06:41:17.068Z,100782.56
2022-09-10T06:43:52.943Z,100774.91
2022-09-10T06:49:19.398Z,100780.16
2022-09-10T06:51:50.034Z,100784.38
2022-09-10T06:54:17.662Z,100786.09
2022-09-10T06:56:46.859Z,100786.59
2022-09-10T06:59:14.721Z,100787.41
2022-09-10T07:01:47.567Z,100783.28
2022-09-10T07:04:14.798Z,100786.94
2022-09-10T07:06:41.715Z,100780.06
2022-09-10T07:09:10.783Z,100790.16
2022-09-10T07:11:46.110Z,100785.19
2022-09-10T07:14:14.137Z,100789.47
2022-09-10T07:16:44.645Z,100788.09
2022-09-10T07:19:17.341Z,100786.28
2022-09-10T07:21:44.985Z,100785.34
2022-09-10T07:24:14.422Z,100782.09
2022-09-10T07:26:59.390Z,100792.97
2022-09-10T07:29:25.959Z,100786.88
2022-09-10T07:31:53.486Z,100781.13
2022-09-10T07:34:23.054Z,100784.47
2022-09-10T07:36:49.632Z,100784.69
2022-09-10T07:39:21.304Z,100785.16
2022-09-10T07:41:50.183Z,100779.38
2022-09-10T07:44:19.665Z,100778.50
2022-09-10T07:46:47.768Z,100781.19
2022-09-10T07:49:16.174Z,100781.50
2022-09-10T07:51:46.430Z,100777.63
2022-09-10T07:54:15.896Z,100790.53
2022-09-10T07:56:46.433Z,100793.31
2022-09-10T07:59:15.123Z,100792.00
2022-09-10T08:01:46.824Z,100790.81
2022-09-10T08:04:16.175Z,100804.19
2022-09-10T08:06:42.882Z,100794.97
2022-09-10T08:09:09.414Z,100803.72
2022-09-10T08:11:41.353Z,100797.19
2022-09-10T08:14:10.873Z,100804.22
2022-09-10T08:16:40.212Z,100810.34
2022-09-10T08:19:13.851Z,100808.63
2022-09-10T08:21:40.899Z,100814.44
2022-09-10T08:24:08.652Z,100816.16
2022-09-10T08:26:35.686Z,100816.91
2022-09-10T08:29:04.415Z,100816.81
2022-09-10T08:31:31.293Z,100806.00
2022-09-10T08:34:06.658Z,100812.41
2022-09-10T08:36:35.386Z,100804.25
2022-09-10T08:39:06.290Z,100815.69
2022-09-10T08:41:40.931Z,100810.88
2022-09-10T08:44:29.007Z,100813.94
2022-09-10T08:47:04.386Z,100818.66
2022-09-10T08:49:42.189Z,100810.81
2022-09-10T08:52:34.384Z,100812.03
2022-09-10T08:55:04.397Z,100812.69
2022-09-10T08:57:41.923Z,100806.94
2022-09-10T09:00:14.836Z,100808.94
2022-09-10T09:02:57.770Z,100821.41
2022-09-10T09:05:28.533Z,100808.78
2022-09-10T09:07:58.531Z,100812.13
2022-09-10T09:10:50.116Z,100817.09
2022-09-10T09:13:32.143Z,100817.91
2022-09-10T09:16:12.873Z,100816.06
2022-09-10T09:19:11.155Z,100822.13
2022-09-10T09:21:46.825Z,100819.56
2022-09-10T09:24:48.807Z,100820.97
2022-09-10T09:27:17.989Z,100820.88
2022-09-10T09:29:59.363Z,100813.97
2022-09-10T09:32:28.716Z,100813.16
2022-09-10T09:35:09.561Z,100810.81
2022-09-10T09:37:37.870Z,100816.22
2022-09-10T09:40:13.438Z,100812.41
2022-09-10T09:42:54.100Z,100808.13
2022-09-10T09:45:37.714Z,100808.72
2022-09-10T09:48:06.583Z,100813.91
2022-09-10T09:50:38.748Z,100808.81
2022-09-10T09:53:05.184Z,100814.97
2022-09-10T09:55:47.221Z,100813.47
2022-09-10T09:58:24.089Z,100807.34
2022-09-10T10:00:55.047Z,100806.78
2022-09-10T10:03:29.062Z,100805.25
2022-09-10T10:06:03.548Z,100810.00
2022-09-10T10:08:34.054Z,100808.44
2022-09-10T10:11:00.555Z,100805.75
2022-09-10T10:13:38.994Z,100795.97
2022-09-10T10:16:16.363Z,100809.81
2022-09-10T10:18:44.124Z,100807.56
2022-09-10T10:21:15.035Z,100804.78
2022-09-10T10:23:41.944Z,100807.88
2022-09-10T10:26:20.323Z,100804.28
2022-09-10T10:28:50.304Z,100805.97
2022-09-10T10:31:18.149Z,100802.69
2022-09-10T10:34:03.488Z,100797.63
2022-09-10T10:36:58.339Z,100791.41
2022-09-10T10:39:55.426Z,100793.72
2022-09-10T10:42:31.826Z,100787.53
2022-09-10T10:45:18.255Z,100793.41
2022-09-10T10:47:51.719Z,100784.25
2022-09-10T10:50:28.558Z,100783.28
2022-09-10T10:53:09.367Z,100779.06
2022-09-10T10:55:45.279Z,100776.88
2022-09-10T10:58:24.383Z,100777.78
2022-09-10T11:00:57.596Z,100783.88
2022-09-10T11:03:36.255Z,100778.59
2022-09-10T11:06:10.759Z,100769.38
2022-09-10T11:08:50.807Z,100780.19
2022-09-10T11:11:23.895Z,100778.19
2022-09-10T11:14:19.608Z,100772.16
2022-09-10T11:16:55.316Z,100780.84
2022-09-10T11:19:36.893Z,100775.47
2022-09-10T11:22:13.980Z,100772.53
2022-09-10T11:24:47.492Z,100767.81
2022-09-10T11:27:29.860Z,100776.69
2022-09-10T11:30:03.902Z,100774.81
2022-09-10T11:32:38.242Z,100772.16
2022-09-10T11:35:26.704Z,100770.47
2022-09-10T11:38:20.610Z,100759.69
2022-09-10T11:41:00.354Z,100770.16
2022-09-10T11:43:43.532Z,100759.81
2022-09-10T11:46:15.262Z,100760.38
2022-09-10T11:49:03.588Z,100770.03
2022-09-10T11:51:34.117Z,100765.81
2022-09-10T11:54:03.590Z,100759.50
2022-09-10T11:56:50.892Z,100764.59
2022-09-10T11:59:27.088Z,100751.22
2022-09-10T12:02:32.710Z,100753.91
2022-09-10T12:05:07.748Z,100754.41
2022-09-10T12:07:59.423Z,100751.06
2022-09-10T12:10:35.319Z,100748.69
2022-09-10T12:13:09.338Z,100739.19
2022-09-10T12:15:37.775Z,100740.56
2022-09-10T12:18:15.363Z,100735.84
2022-09-10T12:20:52.283Z,100740.84
2022-09-10T12:23:28.107Z,100745.78
2022-09-10T12:25:59.810Z,100743.00
2022-09-10T12:28:41.790Z,100749.28
2022-09-10T12:31:10.610Z,100742.97
2022-09-10T12:33:46.145Z,100750.50
2022-09-10T12:36:14.836Z,100747.00
2022-09-10T12:39:19.944Z,100741.50
2022-09-10T12:41:46.279Z,100736.44
2022-09-10T12:44:34.933Z,100729.34
2022-09-10T12:47:28.884Z,100729.28
2022-09-10T12:50:01.146Z,100734.75
2022-09-10T12:52:45.108Z,100726.72
2022-09-10T12:55:49.191Z,100736.09
2022-09-10T12:58:43.840Z,100726.69
2022-09-10T13:01:37.248Z,100724.47
2022-09-10T13:04:03.886Z,100720.19
2022-09-10T13:06:40.274Z,100723.09
2022-09-10T13:09:19.883Z,100715.38
2022-09-10T13:11:51.954Z,100715.34
2022-09-10T13:14:28.899Z,100711.53
2022-09-10T13:16:55.457Z,100722.75
2022-09-10T13:19:21.788Z,100727.41
2022-09-10T13:21:48.193Z,100718.22
2022-09-10T13:24:33.813Z,100721.34
2022-09-10T13:27:04.703Z,100716.69
2022-09-10T13:29:38.401Z,100723.25
2022-09-10T13:32:15.131Z,100713.09
2022-09-10T13:35:08.291Z,100705.06
2022-09-10T13:38:09.929Z,100715.97
2022-09-10T13:41:02.585Z,100709.84
2022-09-10T13:43:48.618Z,100719.97
2022-09-10T13:46:28.279Z,100724.94
2022-09-10T13:49:09.797Z,100716.03
2022-09-10T13:51:54.172Z,100725.41
2022-09-10T13:54:31.454Z,100716.88
2022-09-10T13:57:04.457Z,100717.41
2022-09-10T13:59:34.042Z,100718.75
2022-09-10T14:02:00.461Z,100713.03
2022-09-10T14:04:41.988Z,100716.44
2022-09-10T14:07:26.890Z,100712.06
2022-09-10T14:09:59.922Z,100709.44
2022-09-10T14:12:35.685Z,100716.97
2022-09-10T14:15:06.428Z,100717.19
2022-09-10T14:17:41.367Z,100718.53
2022-09-10T14:20:23.508Z,100726.56
2022-09-10T14:22:58.738Z,100719.94
2022-09-10T14:25:32.687Z,100715.28
2022-09-10T14:28:20.677Z,100716.44
2022-09-10T14:30:48.885Z,100722.69
2022-09-10T14:33:32.298Z,100722.72
2022-09-10T14:36:13.686Z,100717.72
2022-09-10T14:38:42.415Z,100713.53
2022-09-10T14:41:24.606Z,100713.06
2022-09-10T14:44:15.561Z,100723.13
2022-09-10T14:46:57.453Z,100720.69
2022-09-10T14:49:29.688Z,100713.16
2022-09-10T14:51:58.427Z,100707.50
2022-09-10T14:54:26.335Z,100715.88
2022-09-10T14:56:54.130Z,100707.13
2022-09-10T14:59:38.760Z,100707.31
2022-09-10T15:02:16.367Z,100707.75
2022-09-10T15:04:42.856Z,100709.28
2022-09-10T15:07:13.630Z,100704.72
2022-09-10T15:09:40.927Z,100700.28
2022-09-10T15:12:28.241Z,100699.13
2022-09-10T15:14:55.138Z,100702.72
2022-09-10T15:17:21.539Z,100697.94
2022-09-10T15:19:48.591Z,100704.00
2022-09-10T15:22:29.766Z,100703.25
2022-09-10T15:25:12.304Z,100703.78
2022-09-10T15:27:38.900Z,100706.28
2022-09-10T15:30:06.267Z,100705.06
2022-09-10T15:32:32.699Z,100715.97
2022-09-10T15:34:59.159Z,100704.63
2022-09-10T15:37:25.583Z,100705.91
2022-09-10T15:39:52.724Z,100715.22
2022-09-10T15:42:19.150Z,100713.72
2022-09-10T15:44:45.538Z,100717.03
2022-09-10T15:47:11.942Z,100718.06
2022-09-10T15:49:38.352Z,100713.00
2022-09-10T15:52:04.903Z,100721.94
2022-09-10T15:54:31.290Z,100728.63
2022-09-10T15:56:59.157Z,100732.06
2022-09-10T15:59:25.538Z,100729.81
2022-09-10T16:01:51.970Z,100720.81
2022-09-10T16:04:18.371Z,100721.56
2022-09-10T16:06:44.761Z,100718.78
2022-09-10T16:09:12.997Z,100721.47
2022-09-10T16:11:41.758Z,100722.56
2022-09-10T16:14:11.815Z,100726.63
2022-09-10T16:16:39.050Z,100726.94
2022-09-10T16:19:05.872Z,100727.16
2022-09-10T16:21:36.347Z,100733.78
2022-09-10T16:24:04.623Z,100721.63
2022-09-10T16:26:37.099Z,100729.63
2022-09-10T16:29:12.497Z,100736.69
2022-09-10T16:31:41.847Z,100733.53
2022-09-10T16:34:11.556Z,100740.19
2022-09-10T16:36:39.156Z,100743.38
2022-09-10T16:39:12.125Z,100742.84
2022-09-10T16:41:49.071Z,100741.53
2022-09-10T16:44:17.462Z,100745.97
2022-09-10T16:46:44.616Z,100751.47
2022-09-10T16:49:15.107Z,100749.19
2022-09-10T16:51:42.993Z,100763.84
2022-09-10T16:54:09.485Z,100758.00
2022-09-10T16:56:39.571Z,100762.38
2022-09-10T16:59:07.912Z,100767.31
2022-09-10T17:01:35.991Z,100773.13
2022-09-10T17:04:03.640Z,100774.59
2022-09-10T17:06:31.190Z,100769.59
2022-09-10T17:08:59.562Z,100774.38
2022-09-10T17:11:31.324Z,100769.84
2022-09-10T17:13:59.230Z,100765.47
2022-09-10T17:16:30.528Z,100770.25
2022-09-10T17:19:04.335Z,100769.84
2022-09-10T17:21:32.181Z,100766.81
2022-09-10T17:23:59.254Z,100755.44
2022-09-10T17:26:27.085Z,100756.50
2022-09-10T17:28:58.668Z,100762.09
2022-09-10T17:31:27.362Z,100754.53
2022-09-10T17:33:53.869Z,100766.88
2022-09-10T17:36:20.429Z,100755.47
2022-09-10T17:38:47.276Z,100762.72
2022-09-10T17:41:14.549Z,100762.72
2022-09-10T17:43:42.924Z,100771.25
2022-09-10T17:46:12.632Z,100779.19
2022-09-10T17:48:39.186Z,100770.56
2022-09-10T17:51:06.371Z,100782.28
2022-09-10T17:53:34.232Z,100789.63
2022-09-10T17:56:06.363Z,100786.75
2022-09-10T17:58:33.544Z,100789.16
2022-09-10T18:01:01.979Z,100793.28
2022-09-10T18:03:28.921Z,100798.47
2022-09-10T18:05:56.896Z,100798.13
2022-09-10T18:08:23.291Z,100805.34
2022-09-10T18:10:50.778Z,100799.41
2022-09-10T18:13:19.394Z,100808.09
2022-09-10T18:15:48.789Z,100812.09
2022-09-10T18:18:15.472Z,100810.06
2022-09-10T18:20:42.931Z,100808.97
2022-09-10T18:23:09.733Z,100816.44
2022-09-10T18:25:36.127Z,100814.38
2022-09-10T18:28:03.098Z,100821.22
2022-09-10T18:30:30.071Z,100817.66
2022-09-10T18:32:56.505Z,100816.69
2022-09-10T18:35:23.020Z,100818.56
2022-09-10T18:37:52.579Z,100824.66
2022-09-10T18:40:19.565Z,100824.03
2022-09-10T18:42:47.678Z,100825.09
2022-09-10T18:45:14.118Z,100826.00
2022-09-10T18:47:44.975Z,100822.69
2022-09-10T18:50:13.144Z,100821.03
2022-09-10T18:52:39.629Z,100816.09
2022-09-10T18:55:06.495Z,100811.59
2022-09-10T18:57:32.951Z,100814.84
2022-09-10T19:00:00.319Z,100823.28
2022-09-10T19:02:27.351Z,100824.28
2022-09-10T19:05:10.686Z,100823.31
2022-09-10T19:07:38.160Z,100813.94
2022-09-10T19:10:06.899Z,100821.13
2022-09-10T19:12:33.583Z,100819.88
2022-09-10T19:15:00.436Z,100819.41
2022-09-10T19:17:26.839Z,100817.91
2022-09-10T19:19:53.261Z,100823.16
2022-09-10T19:22:19.668Z,100817.88
2022-09-10T19:24:55.765Z,100811.75
2022-09-10T19:27:23.963Z,100807.91
2022-09-10T19:29:50.617Z,100805.44
2022-09-10T19:32:19.433Z,100805.94
2022-09-10T19:34:45.968Z,100799.41
2022-09-10T19:37:12.877Z,100797.56
2022-09-10T19:39:39.375Z,100802.00
2022-09-10T19:42:06.753Z,100800.53
2022-09-10T19:44:33.668Z,100803.03
2022-09-10T19:47:00.144Z,100801.25
2022-09-10T19:49:26.528Z,100798.09
2022-09-10T19:51:54.104Z,100806.16
2022-09-10T19:54:21.287Z,100800.00
2022-09-10T19:56:47.676Z,100817.03
2022-09-10T19:59:14.526Z,100811.38
2022-09-10T20:01:42.604Z,100812.03
2022-09-10T20:04:11.354Z,100814.38
2022-09-10T20:06:38.829Z,100811.88
2022-09-10T20:09:06.651Z,100808.91
2022-09-10T20:11:35.035Z,100806.06
2022-09-10T20:14:13.373Z,100804.91
2022-09-10T20:16:43.213Z,100815.06
2022-09-10T20:19:12.359Z,100820.59
2022-09-10T20:21:38.891Z,100817.41
2022-09-10T20:24:08.510Z,100823.41
2022-09-10T20:26:43.735Z,100826.22
2022-09-10T20:29:12.532Z,100833.22
2022-09-10T20:31:41.229Z,100827.06
2022-09-10T20:34:11.278Z,100831.03
2022-09-10T20:36:43.642Z,100824.69
2022-09-10T20:39:13.542Z,100825.66
2022-09-10T20:41:40.209Z,100829.97
2022-09-10T20:44:06.718Z,100824.97
2022-09-10T20:46:34.381Z,100817.31
2022-09-10T20:49:03.051Z,100829.47
2022-09-10T20:51:35.112Z,100819.31
2022-09-10T20:54:02.912Z,100833.75
2022-09-10T20:56:29.370Z,100836.13
2022-09-10T20:58:55.751Z,100833.44
2022-09-10T21:01:24.965Z,100834.44
2022-09-10T21:03:53.501Z,100831.72
2022-09-10T21:06:24.352Z,100825.31
2022-09-10T21:08:51.656Z,100836.94
2022-09-10T21:11:20.638Z,100844.56
2022-09-10T21:13:48.250Z,100840.72
2022-09-10T21:16:29.660Z,100834.25
2022-09-10T21:19:07.449Z,100836.56
2022-09-10T21:21:35.528Z,100831.94
2022-09-10T21:24:05.242Z,100832.41
2022-09-10T21:26:34.259Z,100842.03
2022-09-10T21:29:04.763Z,100839.22
2022-09-10T21:31:31.723Z,100842.16
2022-09-10T21:34:03.010Z,100841.75
2022-09-10T21:36:31.389Z,100849.34
2022-09-10T21:39:00.408Z,100845.06
2022-09-10T21:41:31.649Z,100842.38
2022-09-10T21:43:59.924Z,100842.38
2022-09-10T21:46:27.503Z,100849.81
2022-09-10T21:48:54.003Z,100844.34
2022-09-10T21:51:21.762Z,100843.72
2022-09-10T21:53:51.582Z,100841.28
2022-09-10T21:56:18.030Z,100841.28
2022-09-10T21:58:45.842Z,100843.25
2022-09-10T22:01:15.584Z,100850.53
2022-09-10T22:03:41.999Z,100846.81
2022-09-10T22:06:14.486Z,100851.69
2022-09-10T22:08:43.744Z,100852.31
2022-09-10T22:11:23.912Z,100848.03
2022-09-10T22:13:52.614Z,100853.81
2022-09-10T22:16:20.404Z,100856.31
2022-09-10T22:18:47.354Z,100854.50
2022-09-10T22:21:14.237Z,100854.84
2022-09-10T22:23:40.806Z,100857.16
2022-09-10T22:26:11.147Z,100857.78
2022-09-10T22:28:38.425Z,100863.56
2022-09-10T22:31:29.413Z,100857.59
2022-09-10T22:34:01.507Z,100854.91
2022-09-10T22:36:36.558Z,100850.56
2022-09-10T22:39:06.832Z,100850.22
2022-09-10T22:41:35.299Z,100860.50
2022-09-10T22:44:03.418Z,100860.97
2022-09-10T22:46:30.402Z,100866.84
2022-09-10T22:48:56.881Z,100864.03
2022-09-10T22:51:28.772Z,100865.50
2022-09-10T22:53:56.618Z,100872.28
2022-09-10T22:56:26.211Z,100874.84
2022-09-10T22:58:54.161Z,100871.50
2022-09-10T23:01:23.067Z,100876.50
2022-09-10T23:03:50.194Z,100874.66
2022-09-10T23:06:19.806Z,100884.34
2022-09-10T23:08:48.725Z,100872.84
2022-09-10T23:11:23.843Z,100887.88
2022-09-10T23:13:52.894Z,100885.06
2022-09-10T23:16:40.828Z,100889.72
2022-09-10T23:19:11.243Z,100879.47
2022-09-10T23:21:41.223Z,100875.19
2022-09-10T23:24:08.023Z,100887.50
2022-09-10T23:26:34.403Z,100881.53
2022-09-10T23:29:04.066Z,100880.91
2022-09-10T23:31:32.833Z,100878.50
2022-09-10T23:34:05.355Z,100885.50
2022-09-10T23:36:34.807Z,100879.16
2022-09-10T23:39:03.504Z,100881.66
2022-09-10T23:41:29.979Z,100888.66
2022-09-10T23:43:57.104Z,100892.13
2022-09-10T23:46:23.789Z,100891.25
2022-09-10T23:48:50.227Z,100892.56
2022-09-10T23:51:19.494Z,100898.72
2022-09-10T23:53:47.991Z,100899.75
2022-09-10T23:56:16.790Z,100892.84
2022-09-10T23:58:43.198Z,100898.72
